sensor_id;sensor_type;location;lat;lon;timestamp;pressure;altitude;pressure_sealevel;temperature;humidity
42001;BME280;27689;48.390;10.856;2022-12-07T00:00:14;96109.59;;;2.80;100.00
42001;BME280;27689;48.390;10.856;2022-12-07T00:02:58;96102.94;;;2.76;100.00
42001;BME280;27689;48.390;10.856;2022-12-07T00:05:42;96105.25;;;2.81;100.00
42001;BME280;27689;48.390;10.856;2022-12-07T00:08:26;96100.16;;;2.79;100.00
42001;BME280;27689;48.390;10.856;2022-12-07T00:11:15;96095.81;;;2.80;100.00
42001;BME280;27689;48.390;10.856;2022-12-07T00:14:02;96104.50;;;2.79;100.00
42001;BME280;27689;48.390;10.856;2022-12-07T00:16:50;96100.38;;;2.89;100.00
42001;BME280;27689;48.390;10.856;2022-12-07T00:19:34;96094.56;;;2.73;100.00
42001;BME280;27689;48.390;10.856;2022-12-07T00:22:18;96094.56;;;2.73;100.00
42001;BME280;27689;48.390;10.856;2022-12-07T00:25:02;96101.06;;;2.66;100.00
42001;BME280;27689;48.390;10.856;2022-12-07T00:27:46;96099.91;;;2.70;100.00
42001;BME280;27689;48.390;10.856;2022-12-07T00:30:30;96087.50;;;2.62;100.00
42001;BME280;27689;48.390;10.856;2022-12-07T00:33:13;96095.53;;;2.58;100.00
42001;BME280;27689;48.390;10.856;2022-12-07T00:35:58;96093.69;;;2.60;100.00
42001;BME280;27689;48.390;10.856;2022-12-07T00:38:43;96089.34;;;2.60;100.00
42001;BME280;27689;48.390;10.856;2022-12-07T00:41:28;96090.47;;;2.56;100.00
42001;BME280;27689;48.390;10.856;2022-12-07T00:44:13;96089.63;;;2.56;100.00
42001;BME280;27689;48.390;10.856;2022-12-07T00:46:57;96091.66;;;2.65;100.00
42001;BME280;27689;48.390;10.856;2022-12-07T00:49:41;96089.34;;;2.60;100.00
42001;BME280;27689;48.390;10.856;2022-12-07T00:52:25;96089.31;;;2.47;100.00
42001;BME280;27689;48.390;10.856;2022-12-07T00:55:08;96087.38;;;2.51;100.00
42001;BME280;27689;48.390;10.856;2022-12-07T00:57:53;96089.63;;;2.56;100.00
42001;BME280;27689;48.390;10.856;2022-12-07T01:00:38;96096.66;;;2.54;100.00
42001;BME280;27689;48.390;10.856;2022-12-07T01:03:22;96089.31;;;2.47;100.00
42001;BME280;27689;48.390;10.856;2022-12-07T01:06:06;96088.38;;;2.48;100.00
42001;BME280;27689;48.390;10.856;2022-12-07T01:08:50;96086.44;;;2.52;100.00
42001;BME280;27689;48.390;10.856;2022-12-07T01:11:34;96100.38;;;2.50;100.00
42001;BME280;27689;48.390;10.856;2022-12-07T01:14:18;96089.13;;;2.51;100.00
42001;BME280;27689;48.390;10.856;2022-12-07T01:17:02;96095.94;;;2.52;100.00
42001;BME280;27689;48.390;10.856;2022-12-07T01:19:47;96093.38;;;2.52;100.00
42001;BME280;27689;48.390;10.856;2022-12-07T01:22:31;96093.66;;;2.47;100.00
42001;BME280;27689;48.390;10.856;2022-12-07T01:25:15;96093.75;;;2.45;100.00
42001;BME280;27689;48.390;10.856;2022-12-07T01:27:59;96090.25;;;2.46;100.00
42001;BME280;27689;48.390;10.856;2022-12-07T01:30:43;96095.22;;;2.50;100.00
42001;BME280;27689;48.390;10.856;2022-12-07T01:33:36;96100.16;;;2.53;100.00
42001;BME280;27689;48.390;10.856;2022-12-07T01:36:26;96094.81;;;2.56;100.00
42001;BME280;27689;48.390;10.856;2022-12-07T01:39:10;96096.56;;;2.55;100.00
42001;BME280;27689;48.390;10.856;2022-12-07T01:41:54;96097.19;;;2.59;100.00
42001;BME280;27689;48.390;10.856;2022-12-07T01:48:12;96089.63;;;2.56;100.00
42001;BME280;27689;48.390;10.856;2022-12-07T01:51:01;96091.50;;;2.54;100.00
42001;BME280;27689;48.390;10.856;2022-12-07T01:53:47;96084.88;;;2.50;100.00
42001;BME280;27689;48.390;10.856;2022-12-07T01:56:32;96075.69;;;2.58;100.00
42001;BME280;27689;48.390;10.856;2022-12-07T01:59:17;96092.94;;;2.58;100.00
42001;BME280;27689;48.390;10.856;2022-12-07T02:02:04;96084.81;;;2.64;100.00
42001;BME280;27689;48.390;10.856;2022-12-07T02:04:53;96089.06;;;2.65;100.00
42001;BME280;27689;48.390;10.856;2022-12-07T02:07:38;96077.16;;;2.62;100.00
42001;BME280;27689;48.390;10.856;2022-12-07T02:10:28;96094.31;;;2.63;100.00
42001;BME280;27689;48.390;10.856;2022-12-07T02:13:21;96078.78;;;2.51;100.00
42001;BME280;27689;48.390;10.856;2022-12-07T02:28:47;96080.13;;;2.56;100.00
42001;BME280;27689;48.390;10.856;2022-12-07T02:31:32;96082.50;;;2.59;100.00
42001;BME280;27689;48.390;10.856;2022-12-07T02:34:22;96077.31;;;2.46;100.00
42001;BME280;27689;48.390;10.856;2022-12-07T02:37:21;96081.75;;;2.44;100.00
42001;BME280;27689;48.390;10.856;2022-12-07T02:40:12;96079.91;;;2.46;100.00
42001;BME280;27689;48.390;10.856;2022-12-07T02:43:25;96070.66;;;2.42;100.00
42001;BME280;27689;48.390;10.856;2022-12-07T02:46:17;96067.78;;;2.47;100.00
42001;BME280;27689;48.390;10.856;2022-12-07T02:49:02;96077.97;;;2.63;100.00
42001;BME280;27689;48.390;10.856;2022-12-07T02:51:47;96067.63;;;2.63;100.00
42001;BME280;27689;48.390;10.856;2022-12-07T02:54:31;96066.88;;;2.48;100.00
42001;BME280;27689;48.390;10.856;2022-12-07T03:00:31;96057.59;;;2.31;100.00
42001;BME280;27689;48.390;10.856;2022-12-07T03:03:19;96064.84;;;2.39;100.00
42001;BME280;27689;48.390;10.856;2022-12-07T03:06:22;96063.31;;;2.36;100.00
42001;BME280;27689;48.390;10.856;2022-12-07T03:09:20;96069.09;;;2.40;100.00
42001;BME280;27689;48.390;10.856;2022-12-07T03:12:17;96070.56;;;2.44;100.00
42001;BME280;27689;48.390;10.856;2022-12-07T03:15:18;96070.66;;;2.42;100.00
42001;BME280;27689;48.390;10.856;2022-12-07T03:18:07;96065.91;;;2.36;100.00
42001;BME280;27689;48.390;10.856;2022-12-07T03:20:55;96064.53;;;2.31;100.00
42001;BME280;27689;48.390;10.856;2022-12-07T03:23:42;96054.28;;;2.29;100.00
42001;BME280;27689;48.390;10.856;2022-12-07T03:26:32;96063.69;;;2.30;100.00
42001;BME280;27689;48.390;10.856;2022-12-07T03:29:24;96066.38;;;2.29;100.00
42001;BME280;27689;48.390;10.856;2022-12-07T03:32:14;96066.47;;;2.27;100.00
42001;BME280;27689;48.390;10.856;2022-12-07T03:35:14;96066.28;;;2.30;100.00
42001;BME280;27689;48.390;10.856;2022-12-07T03:38:12;96067.13;;;2.31;100.00
42001;BME280;27689;48.390;10.856;2022-12-07T03:41:06;96066.47;;;2.27;100.00
42001;BME280;27689;48.390;10.856;2022-12-07T03:43:54;96068.22;;;2.27;100.00
42001;BME280;27689;48.390;10.856;2022-12-07T03:46:59;96069.78;;;2.29;100.00
42001;BME280;27689;48.390;10.856;2022-12-07T03:49:47;96065.28;;;2.33;100.00
42001;BME280;27689;48.390;10.856;2022-12-07T03:52:45;96057.22;;;2.37;100.00
42001;BME280;27689;48.390;10.856;2022-12-07T03:55:35;96065.66;;;2.27;100.00
42001;BME280;27689;48.390;10.856;2022-12-07T03:58:21;96071.13;;;2.22;100.00
42001;BME280;27689;48.390;10.856;2022-12-07T04:01:06;96067.59;;;2.23;100.00
42001;BME280;27689;48.390;10.856;2022-12-07T04:03:50;96077.91;;;2.37;100.00
42001;BME280;27689;48.390;10.856;2022-12-07T04:06:34;96072.28;;;2.31;100.00
42001;BME280;27689;48.390;10.856;2022-12-07T04:09:18;96071.69;;;2.40;100.00
42001;BME280;27689;48.390;10.856;2022-12-07T04:12:02;96069.78;;;2.29;100.00
42001;BME280;27689;48.390;10.856;2022-12-07T04:14:46;96067.66;;;2.36;100.00
42001;BME280;27689;48.390;10.856;2022-12-07T04:17:30;96064.66;;;2.42;100.00
42001;BME280;27689;48.390;10.856;2022-12-07T04:20:14;96069.69;;;2.31;100.00
42001;BME280;27689;48.390;10.856;2022-12-07T04:22:58;96055.41;;;2.25;100.00
42001;BME280;27689;48.390;10.856;2022-12-07T04:25:42;96077.09;;;2.23;100.00
42001;BME280;27689;48.390;10.856;2022-12-07T04:28:26;96060.38;;;2.28;100.00
42001;BME280;27689;48.390;10.856;2022-12-07T04:31:10;96066.47;;;2.27;100.00
42001;BME280;27689;48.390;10.856;2022-12-07T04:33:54;96060.38;;;2.28;100.00
42001;BME280;27689;48.390;10.856;2022-12-07T04:36:38;96054.66;;;2.23;100.00
42001;BME280;27689;48.390;10.856;2022-12-07T04:42:08;96070.47;;;2.19;100.00
42001;BME280;27689;48.390;10.856;2022-12-07T04:44:52;96064.94;;;2.10;100.00
42001;BME280;27689;48.390;10.856;2022-12-07T04:47:36;96056.84;;;2.17;100.00
42001;BME280;27689;48.390;10.856;2022-12-07T04:50:19;96056.84;;;2.17;100.00
42001;BME280;27689;48.390;10.856;2022-12-07T04:53:03;96058.50;;;2.18;100.00
42001;BME280;27689;48.390;10.856;2022-12-07T04:55:48;96066.88;;;2.21;100.00
42001;BME280;27689;48.390;10.856;2022-12-07T04:58:32;96056.75;;;2.18;100.00
42001;BME280;27689;48.390;10.856;2022-12-07T05:01:16;96067.31;;;2.28;100.00
42001;BME280;27689;48.390;10.856;2022-12-07T05:04:01;96059.84;;;2.23;100.00
42001;BME280;27689;48.390;10.856;2022-12-07T05:06:45;96065.75;;;2.25;100.00
42001;BME280;27689;48.390;10.856;2022-12-07T05:09:29;96063.16;;;2.25;100.00
42001;BME280;27689;48.390;10.856;2022-12-07T05:12:13;96047.22;;;2.19;100.00
42001;BME280;27689;48.390;10.856;2022-12-07T05:14:57;96052.50;;;2.17;100.00
42001;BME280;27689;48.390;10.856;2022-12-07T05:17:41;96047.03;;;2.22;100.00
42001;BME280;27689;48.390;10.856;2022-12-07T05:20:25;96053.31;;;2.18;100.00
42001;BME280;27689;48.390;10.856;2022-12-07T05:23:09;96044.00;;;2.15;100.00
42001;BME280;27689;48.390;10.856;2022-12-07T05:25:54;96046.41;;;2.18;100.00
42001;BME280;27689;48.390;10.856;2022-12-07T05:28:38;96041.22;;;2.18;100.00
42001;BME280;27689;48.390;10.856;2022-12-07T05:31:22;96046.09;;;2.23;100.00
42001;BME280;27689;48.390;10.856;2022-12-07T05:34:07;96042.06;;;2.19;100.00
42001;BME280;27689;48.390;10.856;2022-12-07T05:36:51;96047.69;;;2.11;100.00
42001;BME280;27689;48.390;10.856;2022-12-07T05:39:35;96045.13;;;2.11;100.00
42001;BME280;27689;48.390;10.856;2022-12-07T05:42:21;96044.59;;;2.06;100.00
42001;BME280;27689;48.390;10.856;2022-12-07T05:45:06;96045.31;;;2.08;100.00
42001;BME280;27689;48.390;10.856;2022-12-07T05:47:51;96054.84;;;2.07;100.00
42001;BME280;27689;48.390;10.856;2022-12-07T05:50:35;96052.03;;;2.10;100.00
42001;BME280;27689;48.390;10.856;2022-12-07T05:53:19;96058.13;;;2.09;100.00
42001;BME280;27689;48.390;10.856;2022-12-07T05:56:03;96050.97;;;2.00;100.00
42001;BME280;27689;48.390;10.856;2022-12-07T05:58:48;96048.28;;;2.02;100.00
42001;BME280;27689;48.390;10.856;2022-12-07T06:01:54;96057.88;;;2.00;100.00
42001;BME280;27689;48.390;10.856;2022-12-07T06:04:42;96054.13;;;1.91;100.00
42001;BME280;27689;48.390;10.856;2022-12-07T06:07:26;96057.75;;;1.89;100.00
42001;BME280;27689;48.390;10.856;2022-12-07T06:10:10;96060.13;;;1.92;100.00
42001;BME280;27689;48.390;10.856;2022-12-07T06:12:54;96061.41;;;1.99;100.00
42001;BME280;27689;48.390;10.856;2022-12-07T06:15:38;96055.97;;;1.89;100.00
42001;BME280;27689;48.390;10.856;2022-12-07T06:18:23;96052.25;;;1.93;100.00
42001;BME280;27689;48.390;10.856;2022-12-07T06:21:07;96061.97;;;1.90;100.00
42001;BME280;27689;48.390;10.856;2022-12-07T06:23:51;96060.41;;;1.87;100.00
42001;BME280;27689;48.390;10.856;2022-12-07T06:26:34;96053.94;;;1.80;100.00
42001;BME280;27689;48.390;10.856;2022-12-07T06:29:18;96063.44;;;1.80;100.00
42001;BME280;27689;48.390;10.856;2022-12-07T06:32:03;96069.34;;;1.82;100.00
42001;BME280;27689;48.390;10.856;2022-12-07T06:34:48;96067.91;;;1.77;100.00
42001;BME280;27689;48.390;10.856;2022-12-07T06:37:32;96058.78;;;1.72;100.00
42001;BME280;27689;48.390;10.856;2022-12-07T06:40:16;96060.72;;;1.68;100.00
42001;BME280;27689;48.390;10.856;2022-12-07T06:43:00;96064.22;;;1.67;100.00
42001;BME280;27689;48.390;10.856;2022-12-07T06:45:44;96065.78;;;1.70;100.00
42001;BME280;27689;48.390;10.856;2022-12-07T06:48:28;96071.13;;;1.67;100.00
42001;BME280;27689;48.390;10.856;2022-12-07T06:51:12;96072.06;;;1.66;100.00
42001;BME280;27689;48.390;10.856;2022-12-07T06:53:56;96061.19;;;1.61;100.00
42001;BME280;27689;48.390;10.856;2022-12-07T06:56:41;96066.72;;;1.55;100.00
42001;BME280;27689;48.390;10.856;2022-12-07T06:59:24;96055.94;;;1.48;100.00
42001;BME280;27689;48.390;10.856;2022-12-07T07:02:08;96054.75;;;1.39;100.00
42001;BME280;27689;48.390;10.856;2022-12-07T07:04:53;96061.66;;;1.39;100.00
42001;BME280;27689;48.390;10.856;2022-12-07T07:07:37;96056.66;;;1.36;100.00
42001;BME280;27689;48.390;10.856;2022-12-07T07:10:20;96068.03;;;1.33;100.00
42001;BME280;27689;48.390;10.856;2022-12-07T07:13:04;96058.72;;;1.31;100.00
42001;BME280;27689;48.390;10.856;2022-12-07T07:15:49;96068.03;;;1.33;100.00
42001;BME280;27689;48.390;10.856;2022-12-07T07:18:32;96058.63;;;1.32;100.00
42001;BME280;27689;48.390;10.856;2022-12-07T07:21:16;96053.72;;;1.28;100.00
42001;BME280;27689;48.390;10.856;2022-12-07T07:24:03;96044.41;;;1.25;100.00
42001;BME280;27689;48.390;10.856;2022-12-07T07:26:47;96051.59;;;1.20;100.00
42001;BME280;27689;48.390;10.856;2022-12-07T07:29:31;96052.63;;;1.18;100.00
42001;BME280;27689;48.390;10.856;2022-12-07T07:32:15;96051.16;;;1.28;100.00
42001;BME280;27689;48.390;10.856;2022-12-07T07:34:59;96058.63;;;1.32;100.00
42001;BME280;27689;48.390;10.856;2022-12-07T07:37:46;96068.22;;;1.30;100.00
42001;BME280;27689;48.390;10.856;2022-12-07T07:40:30;96073.91;;;1.35;100.00
42001;BME280;27689;48.390;10.856;2022-12-07T07:43:15;96074.19;;;1.31;100.00
42001;BME280;27689;48.390;10.856;2022-12-07T07:45:59;96069.66;;;1.34;100.00
42001;BME280;27689;48.390;10.856;2022-12-07T07:48:43;96083.31;;;1.36;100.00
42001;BME280;27689;48.390;10.856;2022-12-07T07:51:27;96075.22;;;1.42;100.00
42001;BME280;27689;48.390;10.856;2022-12-07T07:54:11;96076.13;;;1.41;100.00
42001;BME280;27689;48.390;10.856;2022-12-07T07:56:55;96069.31;;;1.40;100.00
42001;BME280;27689;48.390;10.856;2022-12-07T07:59:39;96073.81;;;1.37;100.00
42001;BME280;27689;48.390;10.856;2022-12-07T08:02:23;96070.41;;;1.36;100.00
42001;BME280;27689;48.390;10.856;2022-12-07T08:05:07;96069.31;;;1.40;100.00
42001;BME280;27689;48.390;10.856;2022-12-07T08:07:51;96070.78;;;1.45;100.00
42001;BME280;27689;48.390;10.856;2022-12-07T08:10:35;96068.28;;;1.43;100.00
42001;BME280;27689;48.390;10.856;2022-12-07T08:13:21;96071.16;;;1.38;100.00
42001;BME280;27689;48.390;10.856;2022-12-07T08:16:07;96065.53;;;1.46;100.00
42001;BME280;27689;48.390;10.856;2022-12-07T08:18:52;96085.44;;;1.44;100.00
42001;BME280;27689;48.390;10.856;2022-12-07T08:21:37;96093.94;;;1.60;100.00
42001;BME280;27689;48.390;10.856;2022-12-07T08:24:21;96098.63;;;1.54;100.00
42001;BME280;27689;48.390;10.856;2022-12-07T08:27:05;96095.78;;;1.58;100.00
42001;BME280;27689;48.390;10.856;2022-12-07T08:29:49;96098.78;;;1.65;100.00
42001;BME280;27689;48.390;10.856;2022-12-07T08:32:33;96101.84;;;1.71;100.00
42001;BME280;27689;48.390;10.856;2022-12-07T08:35:17;96086.69;;;1.80;100.00
42001;BME280;27689;48.390;10.856;2022-12-07T08:38:02;96097.66;;;1.97;100.00
42001;BME280;27689;48.390;10.856;2022-12-07T08:40:57;96094.13;;;2.12;100.00
42001;BME280;27689;48.390;10.856;2022-12-07T08:43:42;96103.59;;;2.26;100.00
42001;BME280;27689;48.390;10.856;2022-12-07T08:49:47;96088.72;;;2.57;100.00
42001;BME280;27689;48.390;10.856;2022-12-07T08:52:34;96093.19;;;2.67;100.00
42001;BME280;27689;48.390;10.856;2022-12-07T08:55:19;96089.91;;;2.78;100.00
42001;BME280;27689;48.390;10.856;2022-12-07T08:58:03;96095.94;;;2.91;100.00
42001;BME280;27689;48.390;10.856;2022-12-07T09:00:47;96099.28;;;3.06;100.00
42001;BME280;27689;48.390;10.856;2022-12-07T09:03:31;96097.63;;;3.17;100.00
42001;BME280;27689;48.390;10.856;2022-12-07T09:06:15;96106.47;;;3.40;100.00
42001;BME280;27689;48.390;10.856;2022-12-07T09:09:01;96108.22;;;3.40;100.00
42001;BME280;27689;48.390;10.856;2022-12-07T09:11:45;96118.56;;;3.52;100.00
42001;BME280;27689;48.390;10.856;2022-12-07T09:14:29;96112.66;;;3.50;100.00
42001;BME280;27689;48.390;10.856;2022-12-07T09:17:13;96100.13;;;3.57;100.00
42001;BME280;27689;48.390;10.856;2022-12-07T09:19:57;96099.78;;;3.74;100.00
42001;BME280;27689;48.390;10.856;2022-12-07T09:22:41;96094.81;;;3.84;100.00
42001;BME280;27689;48.390;10.856;2022-12-07T09:25:25;96102.16;;;3.90;98.83
42001;BME280;27689;48.390;10.856;2022-12-07T09:28:10;96093.13;;;3.96;97.94
42001;BME280;27689;48.390;10.856;2022-12-07T09:30:54;96095.38;;;4.13;98.76
42001;BME280;27689;48.390;10.856;2022-12-07T09:33:38;96100.06;;;4.32;96.51
42001;BME280;27689;48.390;10.856;2022-12-07T09:36:22;96091.03;;;4.37;95.87
42001;BME280;27689;48.390;10.856;2022-12-07T09:39:06;96091.81;;;4.50;96.16
42001;BME280;27689;48.390;10.856;2022-12-07T09:41:50;96080.63;;;4.74;92.82
42001;BME280;27689;48.390;10.856;2022-12-07T09:44:35;96089.09;;;4.76;93.58
42001;BME280;27689;48.390;10.856;2022-12-07T09:47:19;96075.16;;;5.01;97.95
42001;BME280;27689;48.390;10.856;2022-12-07T09:50:13;96066.13;;;5.17;90.64
42001;BME280;27689;48.390;10.856;2022-12-07T09:53:08;96071.81;;;5.34;89.12
42001;BME280;27689;48.390;10.856;2022-12-07T09:55:54;96061.53;;;5.54;91.95
42001;BME280;27689;48.390;10.856;2022-12-07T09:58:38;96065.78;;;5.66;81.27
42001;BME280;27689;48.390;10.856;2022-12-07T10:01:22;96067.13;;;5.61;79.84
42001;BME280;27689;48.390;10.856;2022-12-07T10:04:20;96060.94;;;5.51;76.57
42001;BME280;27689;48.390;10.856;2022-12-07T10:07:05;96060.09;;;5.28;77.93
42001;BME280;27689;48.390;10.856;2022-12-07T10:09:49;96053.84;;;5.19;77.45
42001;BME280;27689;48.390;10.856;2022-12-07T10:12:53;96052.97;;;5.08;76.52
42001;BME280;27689;48.390;10.856;2022-12-07T10:15:55;96049.19;;;5.01;77.04
42001;BME280;27689;48.390;10.856;2022-12-07T10:18:41;96047.97;;;4.93;76.99
42001;BME280;27689;48.390;10.856;2022-12-07T10:21:26;96054.84;;;4.94;75.87
42001;BME280;27689;48.390;10.856;2022-12-07T10:26:55;96041.13;;;4.81;75.19
42001;BME280;27689;48.390;10.856;2022-12-07T10:29:39;96051.56;;;4.69;77.22
42001;BME280;27689;48.390;10.856;2022-12-07T10:32:34;96045.22;;;4.73;76.00
42001;BME280;27689;48.390;10.856;2022-12-07T10:35:28;96046.09;;;4.60;79.54
42001;BME280;27689;48.390;10.856;2022-12-07T10:38:16;96035.41;;;4.65;77.99
42001;BME280;27689;48.390;10.856;2022-12-07T10:41:07;96027.72;;;4.64;77.72
42001;BME280;27689;48.390;10.856;2022-12-07T10:43:54;96033.19;;;4.72;77.92
42001;BME280;27689;48.390;10.856;2022-12-07T11:01:44;96034.41;;;4.55;81.56
42001;BME280;27689;48.390;10.856;2022-12-07T11:04:39;96030.59;;;4.72;77.37
42001;BME280;27689;48.390;10.856;2022-12-07T11:13:37;96023.44;;;4.51;80.18
42001;BME280;27689;48.390;10.856;2022-12-07T11:16:34;96009.97;;;4.46;80.51
42001;BME280;27689;48.390;10.856;2022-12-07T11:23:02;96004.22;;;4.54;82.89
42001;BME280;27689;48.390;10.856;2022-12-07T11:26:23;96011.19;;;4.53;82.43
42001;BME280;27689;48.390;10.856;2022-12-07T11:35:10;95996.16;;;4.70;80.58
42001;BME280;27689;48.390;10.856;2022-12-07T11:38:01;95996.03;;;4.71;80.14
42001;BME280;27689;48.390;10.856;2022-12-07T11:40:56;95992.63;;;4.71;80.30
42001;BME280;27689;48.390;10.856;2022-12-07T11:47:13;95984.41;;;4.53;79.29
42001;BME280;27689;48.390;10.856;2022-12-07T11:50:23;95992.34;;;4.63;77.27
42001;BME280;27689;48.390;10.856;2022-12-07T11:56:12;95985.88;;;4.68;78.30
42001;BME280;27689;48.390;10.856;2022-12-07T11:59:00;95978.19;;;4.67;78.72
42001;BME280;27689;48.390;10.856;2022-12-07T12:01:55;95976.56;;;4.77;75.66
42001;BME280;27689;48.390;10.856;2022-12-07T12:05:02;95973.09;;;4.54;78.63
42001;BME280;27689;48.390;10.856;2022-12-07T12:08:11;95976.25;;;4.46;76.70
42001;BME280;27689;48.390;10.856;2022-12-07T12:11:13;95972.88;;;4.57;75.37
42001;BME280;27689;48.390;10.856;2022-12-07T12:23:00;95963.91;;;4.61;72.62
42001;BME280;27689;48.390;10.856;2022-12-07T12:26:19;95956.81;;;4.52;74.90
42001;BME280;27689;48.390;10.856;2022-12-07T12:29:06;95955.69;;;4.67;71.79
42001;BME280;27689;48.390;10.856;2022-12-07T12:32:14;95950.81;;;4.63;72.60
42001;BME280;27689;48.390;10.856;2022-12-07T12:38:34;95944.91;;;4.60;72.83
42001;BME280;27689;48.390;10.856;2022-12-07T12:50:28;95954.44;;;4.49;74.22
42001;BME280;27689;48.390;10.856;2022-12-07T12:53:26;95952.69;;;4.49;72.86
42001;BME280;27689;48.390;10.856;2022-12-07T12:59:35;95947.72;;;4.46;72.13
42001;BME280;27689;48.390;10.856;2022-12-07T13:02:28;95941.75;;;4.57;71.82
42001;BME280;27689;48.390;10.856;2022-12-07T13:08:20;95930.63;;;4.44;72.77
42001;BME280;27689;48.390;10.856;2022-12-07T13:20:46;95923.91;;;4.41;73.91
42001;BME280;27689;48.390;10.856;2022-12-07T13:29:18;95918.19;;;4.25;76.58
42001;BME280;27689;48.390;10.856;2022-12-07T13:32:24;95913.16;;;4.35;75.95
42001;BME280;27689;48.390;10.856;2022-12-07T13:35:31;95914.19;;;4.32;75.67
42001;BME280;27689;48.390;10.856;2022-12-07T13:38:25;95916.31;;;4.27;76.13
42001;BME280;27689;48.390;10.856;2022-12-07T13:44:05;95918.50;;;4.44;73.71
42001;BME280;27689;48.390;10.856;2022-12-07T13:46:53;95914.38;;;4.42;73.74
42001;BME280;27689;48.390;10.856;2022-12-07T13:49:55;95904.22;;;4.39;74.87
42001;BME280;27689;48.390;10.856;2022-12-07T13:52:43;95912.34;;;4.45;74.16
42001;BME280;27689;48.390;10.856;2022-12-07T13:55:28;95907.34;;;4.20;76.33
42001;BME280;27689;48.390;10.856;2022-12-07T13:58:13;95914.44;;;4.29;75.47
42001;BME280;27689;48.390;10.856;2022-12-07T14:00:57;95909.84;;;4.33;74.48
42001;BME280;27689;48.390;10.856;2022-12-07T14:03:42;95910.91;;;4.30;75.51
42001;BME280;27689;48.390;10.856;2022-12-07T14:06:26;95911.97;;;4.28;75.19
42001;BME280;27689;48.390;10.856;2022-12-07T14:09:24;95912.97;;;4.14;76.59
42001;BME280;27689;48.390;10.856;2022-12-07T14:12:08;95906.88;;;4.15;76.35
42001;BME280;27689;48.390;10.856;2022-12-07T14:14:52;95909.47;;;4.26;76.03
42001;BME280;27689;48.390;10.856;2022-12-07T14:17:53;95915.72;;;4.23;76.06
42001;BME280;27689;48.390;10.856;2022-12-07T14:20:39;95895.72;;;4.02;76.95
42001;BME280;27689;48.390;10.856;2022-12-07T14:23:25;95901.91;;;4.12;77.35
42001;BME280;27689;48.390;10.856;2022-12-07T14:26:15;95911.59;;;4.21;76.45
42001;BME280;27689;48.390;10.856;2022-12-07T14:29:19;95908.75;;;4.13;77.20
42001;BME280;27689;48.390;10.856;2022-12-07T14:32:19;95898.13;;;4.16;75.84
42001;BME280;27689;48.390;10.856;2022-12-07T14:35:12;95896.09;;;4.08;76.51
42001;BME280;27689;48.390;10.856;2022-12-07T14:37:57;95902.53;;;4.27;75.57
42001;BME280;27689;48.390;10.856;2022-12-07T14:40:41;95898.84;;;4.18;76.20
42001;BME280;27689;48.390;10.856;2022-12-07T14:43:25;95896.63;;;4.24;74.98
42001;BME280;27689;48.390;10.856;2022-12-07T14:46:09;95899.91;;;4.15;75.80
42001;BME280;27689;48.390;10.856;2022-12-07T14:48:53;95897.44;;;4.14;76.01
42001;BME280;27689;48.390;10.856;2022-12-07T14:51:39;95892.69;;;4.08;76.45
42001;BME280;27689;48.390;10.856;2022-12-07T14:54:26;95894.06;;;4.01;77.32
42001;BME280;27689;48.390;10.856;2022-12-07T14:57:12;95899.25;;;4.01;77.55
42001;BME280;27689;48.390;10.856;2022-12-07T14:59:57;95895.34;;;3.95;77.72
42001;BME280;27689;48.390;10.856;2022-12-07T15:02:40;95891.66;;;3.86;77.98
42001;BME280;27689;48.390;10.856;2022-12-07T15:05:25;95898.28;;;3.90;77.98
42001;BME280;27689;48.390;10.856;2022-12-07T15:08:11;95891.06;;;3.83;78.18
42001;BME280;27689;48.390;10.856;2022-12-07T15:10:55;95891.44;;;3.89;77.87
42001;BME280;27689;48.390;10.856;2022-12-07T15:13:39;95893.47;;;3.97;76.92
42001;BME280;27689;48.390;10.856;2022-12-07T15:16:42;95888.63;;;3.93;77.45
42001;BME280;27689;48.390;10.856;2022-12-07T15:19:27;95891.38;;;3.78;78.69
42001;BME280;27689;48.390;10.856;2022-12-07T15:22:11;95901.34;;;3.72;79.60
42001;BME280;27689;48.390;10.856;2022-12-07T15:24:54;95894.66;;;3.69;79.81
42001;BME280;27689;48.390;10.856;2022-12-07T15:27:38;95889.72;;;3.77;79.15
42001;BME280;27689;48.390;10.856;2022-12-07T15:30:22;95891.78;;;3.85;78.39
42001;BME280;27689;48.390;10.856;2022-12-07T15:33:06;95886.88;;;3.69;79.81
42001;BME280;27689;48.390;10.856;2022-12-07T15:35:50;95895.91;;;3.64;80.60
42001;BME280;27689;48.390;10.856;2022-12-07T15:38:35;95891.78;;;3.61;80.91
42001;BME280;27689;48.390;10.856;2022-12-07T15:41:19;95896.13;;;3.61;81.21
42001;BME280;27689;48.390;10.856;2022-12-07T15:44:05;95892.22;;;3.55;81.50
42001;BME280;27689;48.390;10.856;2022-12-07T15:47:08;95888.72;;;3.56;81.44
42001;BME280;27689;48.390;10.856;2022-12-07T15:49:52;95893.06;;;3.56;81.23
42001;BME280;27689;48.390;10.856;2022-12-07T15:52:39;95892.44;;;3.52;81.57
42001;BME280;27689;48.390;10.856;2022-12-07T15:55:23;95886.03;;;3.45;82.29
42001;BME280;27689;48.390;10.856;2022-12-07T15:58:07;95890.00;;;3.38;83.58
42001;BME280;27689;48.390;10.856;2022-12-07T16:00:52;95885.66;;;3.38;83.90
42001;BME280;27689;48.390;10.856;2022-12-07T16:03:36;95884.72;;;3.39;83.40
42001;BME280;27689;48.390;10.856;2022-12-07T16:06:24;95883.06;;;3.38;82.71
42001;BME280;27689;48.390;10.856;2022-12-07T16:09:22;95886.78;;;3.34;82.89
42001;BME280;27689;48.390;10.856;2022-12-07T16:12:15;95875.56;;;3.23;83.47
42001;BME280;27689;48.390;10.856;2022-12-07T16:15:09;95879.06;;;3.22;84.31
42001;BME280;27689;48.390;10.856;2022-12-07T16:17:53;95893.47;;;3.26;84.94
42001;BME280;27689;48.390;10.856;2022-12-07T16:20:39;95881.97;;;3.17;84.62
42001;BME280;27689;48.390;10.856;2022-12-07T16:23:24;95883.84;;;3.15;84.85
42001;BME280;27689;48.390;10.856;2022-12-07T16:26:11;95889.63;;;3.18;85.76
42001;BME280;27689;48.390;10.856;2022-12-07T16:28:55;95885.84;;;3.11;86.40